createdAt,value
2017-10-25T00:00:09.726Z,101086
2017-10-25T00:05:13.698Z,101075
2017-10-25T00:10:16.897Z,101069
2017-10-25T00:15:20.070Z,101071
2017-10-25T00:20:23.281Z,101076
2017-10-25T00:25:26.514Z,101069
2017-10-25T00:30:29.727Z,101064
2017-10-25T00:35:32.935Z,101074
2017-10-25T00:40:36.128Z,101075
2017-10-25T00:45:39.324Z,101075
2017-10-25T00:50:42.572Z,101066
2017-10-25T00:55:45.756Z,101067
2017-10-25T01:00:48.966Z,101063
2017-10-25T01:05:52.149Z,101058
2017-10-25T01:10:55.334Z,101055
2017-10-25T01:15:59.314Z,101050
2017-10-25T01:21:02.502Z,101052
2017-10-25T01:26:05.694Z,101037
2017-10-25T01:31:08.871Z,101045
2017-10-25T01:36:12.865Z,101044
2017-10-25T01:41:16.045Z,101040
2017-10-25T01:46:19.375Z,101050
2017-10-25T01:51:22.567Z,101038
2017-10-25T01:56:25.738Z,101047
2017-10-25T02:01:29.670Z,101039
2017-10-25T02:06:32.858Z,101031
2017-10-25T02:11:36.794Z,101023
2017-10-25T02:16:40.106Z,101028
2017-10-25T02:21:43.465Z,101028
2017-10-25T02:26:46.817Z,101018
2017-10-25T02:31:50.869Z,101014
2017-10-25T02:36:54.075Z,101013
2017-10-25T02:41:57.285Z,101004
2017-10-25T02:47:00.482Z,100998
2017-10-25T02:52:03.691Z,101003
2017-10-25T02:57:06.960Z,101004
2017-10-25T03:02:10.184Z,101008
2017-10-25T03:07:13.396Z,101019
2017-10-25T03:12:17.357Z,101012
2017-10-25T03:17:20.535Z,101012
2017-10-25T03:22:23.763Z,101013
2017-10-25T03:27:26.995Z,101011
2017-10-25T03:32:30.269Z,101008
2017-10-25T03:37:33.665Z,101005
2017-10-25T03:42:37.644Z,101006
2017-10-25T03:47:40.839Z,101005
2017-10-25T03:52:44.189Z,100999
2017-10-25T03:57:48.152Z,100987
2017-10-25T04:02:51.332Z,100983
2017-10-25T04:07:54.556Z,100979
2017-10-25T04:12:57.759Z,100983
2017-10-25T04:18:00.903Z,100997
2017-10-25T04:23:04.113Z,100988
2017-10-25T04:28:07.539Z,100990
2017-10-25T04:33:10.769Z,100998
2017-10-25T04:38:14.769Z,100996
2017-10-25T04:43:17.957Z,100992
2017-10-25T04:48:21.146Z,100980
2017-10-25T04:53:24.369Z,100989
2017-10-25T04:58:27.573Z,100993
2017-10-25T05:03:30.793Z,101011
2017-10-25T05:08:34.032Z,100984
2017-10-25T05:13:37.982Z,100984
2017-10-25T05:18:41.310Z,100979
2017-10-25T05:23:44.950Z,100977
2017-10-25T05:28:48.252Z,100966
2017-10-25T05:33:51.433Z,100962
2017-10-25T05:38:54.602Z,100961
2017-10-25T05:43:58.550Z,100959
2017-10-25T05:49:01.737Z,100963
2017-10-25T05:54:05.800Z,100956
2017-10-25T05:59:09.058Z,100970
2017-10-25T06:04:12.261Z,100980
2017-10-25T06:09:16.397Z,100972
2017-10-25T06:14:20.355Z,100966
2017-10-25T06:19:23.558Z,100987
2017-10-25T06:24:26.759Z,100983
2017-10-25T06:29:30.070Z,100996
2017-10-25T06:34:33.285Z,101001
2017-10-25T06:39:36.473Z,101008
2017-10-25T06:44:39.650Z,101011
2017-10-25T06:49:42.823Z,101004
2017-10-25T06:54:46.005Z,100999
2017-10-25T06:59:49.189Z,100985
2017-10-25T07:04:53.137Z,100990
2017-10-25T07:09:56.986Z,100994
2017-10-25T07:15:00.190Z,100980
2017-10-25T07:20:03.497Z,100995
2017-10-25T07:25:06.701Z,101008
2017-10-25T07:30:10.086Z,101023
2017-10-25T07:35:13.276Z,101039
2017-10-25T07:40:17.214Z,101033
2017-10-25T07:45:20.425Z,101035
2017-10-25T07:50:23.670Z,101039
2017-10-25T07:55:26.902Z,101034
2017-10-25T08:00:30.935Z,101039
2017-10-25T08:05:34.907Z,101038
2017-10-25T08:10:38.112Z,101035
2017-10-25T08:15:41.319Z,101052
2017-10-25T08:20:44.534Z,101057
2017-10-25T08:25:47.718Z,101046
2017-10-25T08:30:50.924Z,101044
2017-10-25T08:35:54.100Z,101041
2017-10-25T08:40:58.065Z,101047
2017-10-25T08:46:01.377Z,101037
2017-10-25T08:51:04.577Z,101044
2017-10-25T08:56:07.742Z,101026
2017-10-25T09:01:11.709Z,101032
2017-10-25T09:06:14.899Z,101036
2017-10-25T09:11:18.249Z,101024
2017-10-25T09:16:21.439Z,101035
2017-10-25T09:21:24.651Z,101035
2017-10-25T09:26:27.940Z,101033
2017-10-25T09:31:32.120Z,101032
2017-10-25T09:36:35.467Z,101025
2017-10-25T09:41:38.669Z,101001
2017-10-25T09:46:41.910Z,101015
2017-10-25T09:51:45.086Z,101016
2017-10-25T09:56:48.274Z,101011
2017-10-25T10:01:51.566Z,101008
2017-10-25T10:06:54.774Z,101014
2017-10-25T10:11:58.015Z,101030
2017-10-25T10:17:01.962Z,101023
2017-10-25T10:22:05.141Z,101021
2017-10-25T10:27:08.320Z,101025
2017-10-25T10:32:11.714Z,101011
2017-10-25T10:37:14.843Z,101013
2017-10-25T10:42:18.803Z,101015
2017-10-25T10:47:22.256Z,100997
2017-10-25T10:52:25.451Z,101001
2017-10-25T10:57:28.654Z,100987
2017-10-25T11:02:32.199Z,100996
2017-10-25T11:07:35.380Z,100983
2017-10-25T11:12:38.556Z,100975
2017-10-25T11:17:48.781Z,100984
2017-10-25T11:22:51.970Z,100961
2017-10-25T11:27:56.882Z,100950
2017-10-25T11:33:00.866Z,100955
2017-10-25T11:38:04.899Z,100957
2017-10-25T11:43:08.849Z,100954
2017-10-25T11:48:12.041Z,100947
2017-10-25T11:53:15.327Z,100942
2017-10-25T11:58:18.688Z,100950
2017-10-25T12:03:21.862Z,100947
2017-10-25T12:08:25.814Z,100938
2017-10-25T12:13:29.053Z,100921
2017-10-25T12:18:32.451Z,100923
2017-10-25T12:23:35.676Z,100927
2017-10-25T12:28:38.890Z,100923
2017-10-25T12:33:42.059Z,100912
2017-10-25T12:38:45.244Z,100915
2017-10-25T12:43:48.469Z,100913
2017-10-25T12:48:51.667Z,100903
2017-10-25T12:53:54.863Z,100906
2017-10-25T12:58:58.185Z,100901
2017-10-25T13:04:01.415Z,100908
2017-10-25T13:09:04.659Z,100897
2017-10-25T13:14:22.379Z,100905
2017-10-25T13:19:25.618Z,100899
2017-10-25T13:24:28.822Z,100891
2017-10-25T13:29:32.027Z,100884
2017-10-25T13:34:35.294Z,100886
2017-10-25T13:39:38.486Z,100892
2017-10-25T13:44:41.680Z,100909
2017-10-25T13:49:45.086Z,100922
2017-10-25T13:54:48.316Z,100927
2017-10-25T13:59:51.539Z,100934
2017-10-25T14:04:54.749Z,100942
2017-10-25T14:09:57.920Z,100956
2017-10-25T14:15:01.110Z,100965
2017-10-25T14:20:04.311Z,100968
2017-10-25T14:25:08.286Z,100956
2017-10-25T14:30:11.460Z,100968
2017-10-25T14:35:14.679Z,100972
2017-10-25T14:40:17.869Z,100978
2017-10-25T14:45:21.103Z,101003
2017-10-25T14:50:24.320Z,101004
2017-10-25T14:55:27.476Z,101006
2017-10-25T15:00:30.685Z,101020
2017-10-25T15:05:34.651Z,101012
2017-10-25T15:10:37.996Z,101016
2017-10-25T15:15:41.281Z,101014
2017-10-25T15:20:44.512Z,101012
2017-10-25T15:25:47.794Z,101014
2017-10-25T15:30:51.188Z,101017
2017-10-25T15:35:54.432Z,101015
2017-10-25T15:40:57.686Z,101017
2017-10-25T15:46:00.899Z,101029
2017-10-25T15:51:04.114Z,101031
2017-10-25T15:56:07.286Z,101028
2017-10-25T16:01:11.381Z,101038
2017-10-25T16:06:14.633Z,101054
2017-10-25T16:11:18.665Z,101045
2017-10-25T16:16:21.984Z,101053
2017-10-25T16:21:25.192Z,101052
2017-10-25T16:26:28.465Z,101059
2017-10-25T16:31:32.347Z,101066
2017-10-25T16:36:35.508Z,101074
2017-10-25T16:41:38.849Z,101076
2017-10-25T16:46:42.134Z,101081
2017-10-25T16:51:45.301Z,101089
2017-10-25T16:56:49.275Z,101082
2017-10-25T17:01:52.445Z,101094
2017-10-25T17:06:55.690Z,101106
2017-10-25T17:11:58.889Z,101121
2017-10-25T17:17:02.097Z,101121
2017-10-25T17:22:05.234Z,101135
2017-10-25T17:27:08.752Z,101137
2017-10-25T17:32:12.000Z,101134
2017-10-25T17:37:16.026Z,101141
2017-10-25T17:42:19.935Z,101138
2017-10-25T17:47:23.863Z,101147
2017-10-25T17:52:27.923Z,101152
2017-10-25T17:57:31.165Z,101157
2017-10-25T18:02:34.545Z,101164
2017-10-25T18:07:37.774Z,101170
2017-10-25T18:12:40.951Z,101172
2017-10-25T18:17:44.187Z,101168
2017-10-25T18:22:47.401Z,101179
2017-10-25T18:27:50.614Z,101186
2017-10-25T18:32:53.867Z,101190
2017-10-25T18:37:57.148Z,101187
2017-10-25T18:43:00.401Z,101185
2017-10-25T18:48:04.072Z,101193
2017-10-25T18:53:07.283Z,101197
2017-10-25T18:58:11.325Z,101204
2017-10-25T19:03:14.700Z,101200
2017-10-25T19:08:17.897Z,101207
2017-10-25T19:13:21.139Z,101213
2017-10-25T19:18:25.155Z,101207
2017-10-25T19:23:28.384Z,101206
2017-10-25T19:28:32.338Z,101209
2017-10-25T19:33:35.605Z,101205
2017-10-25T19:38:39.591Z,101214
2017-10-25T19:43:42.780Z,101213
2017-10-25T19:48:46.121Z,101216
2017-10-25T19:53:49.324Z,101221
2017-10-25T19:58:52.612Z,101217
2017-10-25T20:03:55.830Z,101224
2017-10-25T20:08:59.072Z,101221
2017-10-25T20:14:02.272Z,101233
2017-10-25T20:19:06.473Z,101239
2017-10-25T20:24:09.780Z,101239
2017-10-25T20:29:13.116Z,101246
2017-10-25T20:34:16.398Z,101253
2017-10-25T20:39:19.634Z,101264
2017-10-25T20:44:23.017Z,101260
2017-10-25T20:49:26.254Z,101267
2017-10-25T20:54:29.466Z,101264
2017-10-25T20:59:32.882Z,101267
2017-10-25T21:04:36.959Z,101272
2017-10-25T21:09:40.161Z,101273
2017-10-25T21:14:43.364Z,101286
2017-10-25T21:19:46.656Z,101297
2017-10-25T21:24:49.871Z,101286
2017-10-25T21:29:53.098Z,101282
2017-10-25T21:34:56.345Z,101283
2017-10-25T21:40:00.426Z,101285
2017-10-25T21:45:03.652Z,101285
2017-10-25T21:50:06.861Z,101278
2017-10-25T21:55:10.146Z,101275
2017-10-25T22:00:13.356Z,101275
2017-10-25T22:05:16.534Z,101275
2017-10-25T22:10:19.772Z,101278
2017-10-25T22:15:22.962Z,101281
2017-10-25T22:20:26.156Z,101284
2017-10-25T22:25:29.366Z,101275
2017-10-25T22:30:32.585Z,101279
2017-10-25T22:35:35.776Z,101283
2017-10-25T22:40:39.123Z,101279
2017-10-25T22:45:42.325Z,101279
2017-10-25T22:50:45.537Z,101276
2017-10-25T22:55:48.830Z,101285
2017-10-25T23:00:52.011Z,101289
2017-10-25T23:05:55.202Z,101286
2017-10-25T23:10:59.214Z,101280
2017-10-25T23:16:03.158Z,101294
2017-10-25T23:21:06.593Z,101292
2017-10-25T23:26:09.780Z,101296
2017-10-25T23:31:13.037Z,101298
2017-10-25T23:36:16.251Z,101298
2017-10-25T23:41:19.450Z,101301
2017-10-25T23:46:22.653Z,101305
2017-10-25T23:51:25.877Z,101307
2017-10-25T23:56:29.219Z,101316
